sensor_id;sensor_type;location;lat;lon;timestamp;P1;durP1;ratioP1;P2;durP2;ratioP2
80425;SDS011;69766;51.476;5.704;2023-08-07T00:01:56;9.85;;;2.17;;
80425;SDS011;69766;51.476;5.704;2023-08-07T00:04:22;11.70;;;2.92;;
80425;SDS011;69766;51.476;5.704;2023-08-07T00:06:48;16.98;;;2.67;;
80425;SDS011;69766;51.476;5.704;2023-08-07T00:09:13;12.02;;;2.55;;
80425;SDS011;69766;51.476;5.704;2023-08-07T00:11:39;13.80;;;2.55;;
80425;SDS011;69766;51.476;5.704;2023-08-07T00:14:05;13.90;;;3.00;;
80425;SDS011;69766;51.476;5.704;2023-08-07T00:16:30;13.40;;;3.58;;
80425;SDS011;69766;51.476;5.704;2023-08-07T00:18:56;12.35;;;2.83;;
80425;SDS011;69766;51.476;5.704;2023-08-07T00:21:22;14.32;;;2.80;;
80425;SDS011;69766;51.476;5.704;2023-08-07T00:23:48;16.67;;;3.45;;
80425;SDS011;69766;51.476;5.704;2023-08-07T00:26:15;18.67;;;3.17;;
80425;SDS011;69766;51.476;5.704;2023-08-07T00:28:43;10.48;;;2.60;;
80425;SDS011;69766;51.476;5.704;2023-08-07T00:31:09;10.65;;;3.15;;
80425;SDS011;69766;51.476;5.704;2023-08-07T00:33:35;16.75;;;3.83;;
80425;SDS011;69766;51.476;5.704;2023-08-07T00:36:01;11.70;;;2.90;;
80425;SDS011;69766;51.476;5.704;2023-08-07T00:38:27;14.05;;;3.25;;
80425;SDS011;69766;51.476;5.704;2023-08-07T00:40:52;9.40;;;2.38;;
80425;SDS011;69766;51.476;5.704;2023-08-07T00:43:18;15.40;;;3.70;;
80425;SDS011;69766;51.476;5.704;2023-08-07T00:45:45;9.60;;;2.30;;
80425;SDS011;69766;51.476;5.704;2023-08-07T00:48:12;12.18;;;3.10;;
80425;SDS011;69766;51.476;5.704;2023-08-07T00:50:40;11.88;;;2.28;;
80425;SDS011;69766;51.476;5.704;2023-08-07T00:53:08;14.38;;;2.63;;
80425;SDS011;69766;51.476;5.704;2023-08-07T00:55:34;10.18;;;1.90;;
80425;SDS011;69766;51.476;5.704;2023-08-07T00:58:00;10.90;;;2.17;;
80425;SDS011;69766;51.476;5.704;2023-08-07T01:00:27;9.90;;;2.58;;
80425;SDS011;69766;51.476;5.704;2023-08-07T01:02:55;6.85;;;2.03;;
80425;SDS011;69766;51.476;5.704;2023-08-07T01:05:23;12.18;;;3.45;;
80425;SDS011;69766;51.476;5.704;2023-08-07T01:07:50;8.65;;;2.22;;
80425;SDS011;69766;51.476;5.704;2023-08-07T01:10:22;9.45;;;2.20;;
80425;SDS011;69766;51.476;5.704;2023-08-07T01:13:12;8.07;;;2.33;;
80425;SDS011;69766;51.476;5.704;2023-08-07T01:15:48;13.48;;;2.53;;
80425;SDS011;69766;51.476;5.704;2023-08-07T01:18:17;8.02;;;2.40;;
80425;SDS011;69766;51.476;5.704;2023-08-07T01:20:44;11.50;;;2.33;;
80425;SDS011;69766;51.476;5.704;2023-08-07T01:23:09;11.10;;;3.03;;
80425;SDS011;69766;51.476;5.704;2023-08-07T01:25:35;7.88;;;2.20;;
80425;SDS011;69766;51.476;5.704;2023-08-07T01:28:06;10.90;;;2.50;;
80425;SDS011;69766;51.476;5.704;2023-08-07T01:30:42;10.68;;;2.25;;
80425;SDS011;69766;51.476;5.704;2023-08-07T01:35:49;7.55;;;2.05;;
80425;SDS011;69766;51.476;5.704;2023-08-07T01:38:17;10.60;;;2.35;;
80425;SDS011;69766;51.476;5.704;2023-08-07T01:40:45;9.77;;;3.00;;
80425;SDS011;69766;51.476;5.704;2023-08-07T01:43:12;8.40;;;2.17;;
80425;SDS011;69766;51.476;5.704;2023-08-07T01:45:38;13.10;;;2.28;;
80425;SDS011;69766;51.476;5.704;2023-08-07T01:48:04;10.90;;;2.92;;
80425;SDS011;69766;51.476;5.704;2023-08-07T01:50:30;14.32;;;2.65;;
80425;SDS011;69766;51.476;5.704;2023-08-07T01:52:56;10.13;;;3.13;;
80425;SDS011;69766;51.476;5.704;2023-08-07T01:55:22;11.63;;;2.38;;
80425;SDS011;69766;51.476;5.704;2023-08-07T01:57:47;10.20;;;2.50;;
80425;SDS011;69766;51.476;5.704;2023-08-07T02:00:13;11.10;;;2.72;;
80425;SDS011;69766;51.476;5.704;2023-08-07T02:02:39;9.73;;;2.65;;
80425;SDS011;69766;51.476;5.704;2023-08-07T02:05:05;14.27;;;3.88;;
80425;SDS011;69766;51.476;5.704;2023-08-07T02:07:31;11.82;;;2.70;;
80425;SDS011;69766;51.476;5.704;2023-08-07T02:09:57;9.98;;;2.80;;
80425;SDS011;69766;51.476;5.704;2023-08-07T02:12:23;13.05;;;3.33;;
80425;SDS011;69766;51.476;5.704;2023-08-07T02:14:50;9.65;;;2.47;;
80425;SDS011;69766;51.476;5.704;2023-08-07T02:17:16;11.18;;;2.28;;
80425;SDS011;69766;51.476;5.704;2023-08-07T02:19:42;12.05;;;3.08;;
80425;SDS011;69766;51.476;5.704;2023-08-07T02:22:07;9.25;;;2.58;;
80425;SDS011;69766;51.476;5.704;2023-08-07T02:24:33;9.93;;;2.40;;
80425;SDS011;69766;51.476;5.704;2023-08-07T02:26:59;7.53;;;1.98;;
80425;SDS011;69766;51.476;5.704;2023-08-07T02:29:24;9.57;;;2.20;;
80425;SDS011;69766;51.476;5.704;2023-08-07T02:31:50;10.85;;;2.83;;
80425;SDS011;69766;51.476;5.704;2023-08-07T02:34:16;10.05;;;2.55;;
80425;SDS011;69766;51.476;5.704;2023-08-07T02:36:41;10.27;;;2.40;;
80425;SDS011;69766;51.476;5.704;2023-08-07T02:39:07;12.10;;;2.50;;
80425;SDS011;69766;51.476;5.704;2023-08-07T02:41:33;7.85;;;2.38;;
80425;SDS011;69766;51.476;5.704;2023-08-07T02:43:58;17.35;;;2.72;;
80425;SDS011;69766;51.476;5.704;2023-08-07T02:46:24;8.82;;;2.72;;
80425;SDS011;69766;51.476;5.704;2023-08-07T02:48:50;10.98;;;3.38;;
80425;SDS011;69766;51.476;5.704;2023-08-07T02:51:16;8.00;;;2.60;;
80425;SDS011;69766;51.476;5.704;2023-08-07T02:53:41;6.97;;;2.58;;
80425;SDS011;69766;51.476;5.704;2023-08-07T02:56:07;10.73;;;2.50;;
80425;SDS011;69766;51.476;5.704;2023-08-07T02:58:33;10.02;;;2.88;;
80425;SDS011;69766;51.476;5.704;2023-08-07T03:01:05;12.48;;;3.40;;
80425;SDS011;69766;51.476;5.704;2023-08-07T03:03:31;7.05;;;2.58;;
80425;SDS011;69766;51.476;5.704;2023-08-07T03:05:57;17.50;;;3.50;;
80425;SDS011;69766;51.476;5.704;2023-08-07T03:08:23;9.60;;;3.20;;
80425;SDS011;69766;51.476;5.704;2023-08-07T03:10:50;11.55;;;2.95;;
80425;SDS011;69766;51.476;5.704;2023-08-07T03:13:17;9.18;;;2.97;;
80425;SDS011;69766;51.476;5.704;2023-08-07T03:15:43;11.95;;;3.20;;
80425;SDS011;69766;51.476;5.704;2023-08-07T03:18:08;10.38;;;2.78;;
80425;SDS011;69766;51.476;5.704;2023-08-07T03:20:36;10.95;;;3.13;;
80425;SDS011;69766;51.476;5.704;2023-08-07T03:23:02;7.18;;;2.70;;
80425;SDS011;69766;51.476;5.704;2023-08-07T03:25:28;12.55;;;3.15;;
80425;SDS011;69766;51.476;5.704;2023-08-07T03:27:53;13.27;;;3.88;;
80425;SDS011;69766;51.476;5.704;2023-08-07T03:30:19;8.43;;;2.97;;
80425;SDS011;69766;51.476;5.704;2023-08-07T03:32:45;20.23;;;3.30;;
80425;SDS011;69766;51.476;5.704;2023-08-07T03:35:10;12.27;;;3.47;;
80425;SDS011;69766;51.476;5.704;2023-08-07T03:37:36;12.90;;;2.90;;
80425;SDS011;69766;51.476;5.704;2023-08-07T03:40:02;10.88;;;3.42;;
80425;SDS011;69766;51.476;5.704;2023-08-07T03:42:28;12.27;;;3.35;;
80425;SDS011;69766;51.476;5.704;2023-08-07T03:44:54;10.20;;;4.25;;
80425;SDS011;69766;51.476;5.704;2023-08-07T03:47:20;12.68;;;3.53;;
80425;SDS011;69766;51.476;5.704;2023-08-07T03:49:45;9.85;;;2.97;;
80425;SDS011;69766;51.476;5.704;2023-08-07T03:52:11;12.13;;;3.30;;
80425;SDS011;69766;51.476;5.704;2023-08-07T03:54:37;14.15;;;3.33;;
80425;SDS011;69766;51.476;5.704;2023-08-07T03:57:02;9.88;;;2.83;;
80425;SDS011;69766;51.476;5.704;2023-08-07T03:59:28;14.32;;;3.35;;
80425;SDS011;69766;51.476;5.704;2023-08-07T04:01:54;14.57;;;2.85;;
80425;SDS011;69766;51.476;5.704;2023-08-07T04:04:20;12.55;;;2.85;;
80425;SDS011;69766;51.476;5.704;2023-08-07T04:06:45;11.00;;;2.90;;
80425;SDS011;69766;51.476;5.704;2023-08-07T04:09:11;11.35;;;3.75;;
80425;SDS011;69766;51.476;5.704;2023-08-07T04:11:37;11.75;;;2.75;;
80425;SDS011;69766;51.476;5.704;2023-08-07T04:14:02;14.75;;;3.58;;
80425;SDS011;69766;51.476;5.704;2023-08-07T04:16:29;7.55;;;2.83;;
80425;SDS011;69766;51.476;5.704;2023-08-07T04:18:56;11.60;;;3.15;;
80425;SDS011;69766;51.476;5.704;2023-08-07T04:21:21;10.32;;;2.92;;
80425;SDS011;69766;51.476;5.704;2023-08-07T04:23:48;10.00;;;3.88;;
80425;SDS011;69766;51.476;5.704;2023-08-07T04:26:13;10.00;;;3.00;;
80425;SDS011;69766;51.476;5.704;2023-08-07T04:28:39;11.77;;;3.63;;
80425;SDS011;69766;51.476;5.704;2023-08-07T04:31:05;12.13;;;2.88;;
80425;SDS011;69766;51.476;5.704;2023-08-07T04:33:31;10.90;;;3.35;;
80425;SDS011;69766;51.476;5.704;2023-08-07T04:39:23;12.10;;;2.80;;
80425;SDS011;69766;51.476;5.704;2023-08-07T04:41:49;10.60;;;3.03;;
80425;SDS011;69766;51.476;5.704;2023-08-07T04:44:15;10.88;;;3.58;;
80425;SDS011;69766;51.476;5.704;2023-08-07T04:46:41;13.38;;;2.78;;
80425;SDS011;69766;51.476;5.704;2023-08-07T04:49:07;9.07;;;2.65;;
80425;SDS011;69766;51.476;5.704;2023-08-07T04:51:32;12.38;;;4.05;;
80425;SDS011;69766;51.476;5.704;2023-08-07T04:53:58;10.93;;;3.15;;
80425;SDS011;69766;51.476;5.704;2023-08-07T04:56:24;12.43;;;2.88;;
80425;SDS011;69766;51.476;5.704;2023-08-07T04:58:49;12.60;;;3.22;;
80425;SDS011;69766;51.476;5.704;2023-08-07T05:01:15;13.05;;;3.03;;
80425;SDS011;69766;51.476;5.704;2023-08-07T05:03:41;15.85;;;3.38;;
80425;SDS011;69766;51.476;5.704;2023-08-07T05:06:06;8.10;;;3.10;;
80425;SDS011;69766;51.476;5.704;2023-08-07T05:08:32;9.43;;;2.47;;
80425;SDS011;69766;51.476;5.704;2023-08-07T05:10:58;12.48;;;3.47;;
80425;SDS011;69766;51.476;5.704;2023-08-07T05:13:23;12.40;;;2.80;;
80425;SDS011;69766;51.476;5.704;2023-08-07T05:15:49;13.82;;;2.67;;
80425;SDS011;69766;51.476;5.704;2023-08-07T05:18:15;7.43;;;2.78;;
80425;SDS011;69766;51.476;5.704;2023-08-07T05:20:41;11.70;;;2.45;;
80425;SDS011;69766;51.476;5.704;2023-08-07T05:23:07;15.20;;;3.08;;
80425;SDS011;69766;51.476;5.704;2023-08-07T05:25:33;10.90;;;2.53;;
80425;SDS011;69766;51.476;5.704;2023-08-07T05:27:59;10.95;;;2.67;;
80425;SDS011;69766;51.476;5.704;2023-08-07T05:30:25;9.20;;;2.65;;
80425;SDS011;69766;51.476;5.704;2023-08-07T05:32:50;12.45;;;3.03;;
80425;SDS011;69766;51.476;5.704;2023-08-07T05:35:16;9.48;;;2.08;;
80425;SDS011;69766;51.476;5.704;2023-08-07T05:37:42;13.32;;;2.35;;
80425;SDS011;69766;51.476;5.704;2023-08-07T05:40:07;13.07;;;2.47;;
80425;SDS011;69766;51.476;5.704;2023-08-07T05:42:36;10.35;;;2.53;;
80425;SDS011;69766;51.476;5.704;2023-08-07T05:45:03;8.77;;;1.90;;
80425;SDS011;69766;51.476;5.704;2023-08-07T05:47:29;11.93;;;2.10;;
80425;SDS011;69766;51.476;5.704;2023-08-07T05:49:55;8.90;;;1.95;;
80425;SDS011;69766;51.476;5.704;2023-08-07T05:52:20;8.70;;;1.92;;
80425;SDS011;69766;51.476;5.704;2023-08-07T05:54:46;10.57;;;2.72;;
80425;SDS011;69766;51.476;5.704;2023-08-07T05:57:12;5.68;;;2.10;;
80425;SDS011;69766;51.476;5.704;2023-08-07T05:59:38;9.20;;;2.28;;
80425;SDS011;69766;51.476;5.704;2023-08-07T06:02:05;14.02;;;2.45;;
80425;SDS011;69766;51.476;5.704;2023-08-07T06:04:31;6.15;;;2.30;;
80425;SDS011;69766;51.476;5.704;2023-08-07T06:06:57;8.50;;;2.35;;
80425;SDS011;69766;51.476;5.704;2023-08-07T06:09:23;6.72;;;2.50;;
80425;SDS011;69766;51.476;5.704;2023-08-07T06:11:48;8.02;;;2.60;;
80425;SDS011;69766;51.476;5.704;2023-08-07T06:14:14;11.98;;;2.70;;
80425;SDS011;69766;51.476;5.704;2023-08-07T06:16:40;7.32;;;2.38;;
80425;SDS011;69766;51.476;5.704;2023-08-07T06:19:05;11.98;;;2.55;;
80425;SDS011;69766;51.476;5.704;2023-08-07T06:21:31;7.80;;;2.40;;
80425;SDS011;69766;51.476;5.704;2023-08-07T06:23:58;16.88;;;3.17;;
80425;SDS011;69766;51.476;5.704;2023-08-07T06:26:23;6.72;;;2.40;;
80425;SDS011;69766;51.476;5.704;2023-08-07T06:28:49;8.82;;;2.38;;
80425;SDS011;69766;51.476;5.704;2023-08-07T06:31:15;9.32;;;3.05;;
80425;SDS011;69766;51.476;5.704;2023-08-07T06:33:41;16.50;;;3.40;;
80425;SDS011;69766;51.476;5.704;2023-08-07T06:36:07;12.68;;;3.10;;
80425;SDS011;69766;51.476;5.704;2023-08-07T06:38:36;8.95;;;2.90;;
80425;SDS011;69766;51.476;5.704;2023-08-07T06:41:02;9.77;;;2.63;;
80425;SDS011;69766;51.476;5.704;2023-08-07T06:43:28;9.35;;;2.40;;
80425;SDS011;69766;51.476;5.704;2023-08-07T06:45:54;7.72;;;2.13;;
80425;SDS011;69766;51.476;5.704;2023-08-07T06:48:21;13.10;;;3.80;;
80425;SDS011;69766;51.476;5.704;2023-08-07T06:50:47;6.75;;;2.05;;
80425;SDS011;69766;51.476;5.704;2023-08-07T06:53:13;16.73;;;3.17;;
80425;SDS011;69766;51.476;5.704;2023-08-07T06:55:40;8.55;;;2.28;;
80425;SDS011;69766;51.476;5.704;2023-08-07T06:58:06;8.13;;;2.55;;
80425;SDS011;69766;51.476;5.704;2023-08-07T07:00:33;12.63;;;3.08;;
80425;SDS011;69766;51.476;5.704;2023-08-07T07:03:00;9.32;;;2.92;;
80425;SDS011;69766;51.476;5.704;2023-08-07T07:05:26;7.13;;;2.08;;
80425;SDS011;69766;51.476;5.704;2023-08-07T07:07:52;11.05;;;2.15;;
80425;SDS011;69766;51.476;5.704;2023-08-07T07:10:17;10.80;;;2.10;;
80425;SDS011;69766;51.476;5.704;2023-08-07T07:12:43;14.48;;;3.35;;
80425;SDS011;69766;51.476;5.704;2023-08-07T07:15:09;7.32;;;2.55;;
80425;SDS011;69766;51.476;5.704;2023-08-07T07:17:35;10.15;;;2.42;;
80425;SDS011;69766;51.476;5.704;2023-08-07T07:20:00;10.15;;;2.08;;
80425;SDS011;69766;51.476;5.704;2023-08-07T07:22:26;11.52;;;2.35;;
80425;SDS011;69766;51.476;5.704;2023-08-07T07:24:53;9.60;;;1.77;;
80425;SDS011;69766;51.476;5.704;2023-08-07T07:27:19;13.05;;;2.08;;
80425;SDS011;69766;51.476;5.704;2023-08-07T07:29:47;12.00;;;1.88;;
80425;SDS011;69766;51.476;5.704;2023-08-07T07:32:13;6.43;;;1.88;;
80425;SDS011;69766;51.476;5.704;2023-08-07T07:34:39;7.03;;;2.15;;
80425;SDS011;69766;51.476;5.704;2023-08-07T07:37:04;8.77;;;1.80;;
80425;SDS011;69766;51.476;5.704;2023-08-07T07:39:30;8.68;;;1.92;;
80425;SDS011;69766;51.476;5.704;2023-08-07T07:41:56;5.95;;;1.60;;
80425;SDS011;69766;51.476;5.704;2023-08-07T07:44:21;8.80;;;2.30;;
80425;SDS011;69766;51.476;5.704;2023-08-07T07:46:47;11.00;;;3.03;;
80425;SDS011;69766;51.476;5.704;2023-08-07T07:49:13;8.50;;;3.08;;
80425;SDS011;69766;51.476;5.704;2023-08-07T07:51:38;8.82;;;1.92;;
80425;SDS011;69766;51.476;5.704;2023-08-07T07:54:05;14.20;;;2.20;;
80425;SDS011;69766;51.476;5.704;2023-08-07T07:56:31;8.00;;;2.65;;
80425;SDS011;69766;51.476;5.704;2023-08-07T07:58:56;7.28;;;2.20;;
80425;SDS011;69766;51.476;5.704;2023-08-07T08:01:22;12.10;;;2.28;;
80425;SDS011;69766;51.476;5.704;2023-08-07T08:03:48;12.52;;;2.35;;
80425;SDS011;69766;51.476;5.704;2023-08-07T08:06:14;13.85;;;3.40;;
80425;SDS011;69766;51.476;5.704;2023-08-07T08:08:40;9.32;;;1.92;;
80425;SDS011;69766;51.476;5.704;2023-08-07T08:11:07;7.90;;;1.92;;
80425;SDS011;69766;51.476;5.704;2023-08-07T08:13:33;6.82;;;2.05;;
80425;SDS011;69766;51.476;5.704;2023-08-07T08:16:00;13.90;;;2.42;;
80425;SDS011;69766;51.476;5.704;2023-08-07T08:18:26;10.77;;;2.80;;
80425;SDS011;69766;51.476;5.704;2023-08-07T08:20:52;9.95;;;2.42;;
80425;SDS011;69766;51.476;5.704;2023-08-07T08:23:20;8.00;;;2.55;;
80425;SDS011;69766;51.476;5.704;2023-08-07T08:25:46;10.68;;;2.50;;
80425;SDS011;69766;51.476;5.704;2023-08-07T08:28:12;4.75;;;1.90;;
80425;SDS011;69766;51.476;5.704;2023-08-07T08:30:38;9.48;;;2.15;;
80425;SDS011;69766;51.476;5.704;2023-08-07T08:33:03;5.45;;;2.10;;
80425;SDS011;69766;51.476;5.704;2023-08-07T08:35:30;6.50;;;1.85;;
80425;SDS011;69766;51.476;5.704;2023-08-07T08:37:56;7.85;;;2.25;;
80425;SDS011;69766;51.476;5.704;2023-08-07T08:40:22;11.13;;;2.70;;
80425;SDS011;69766;51.476;5.704;2023-08-07T08:42:49;8.68;;;2.30;;
80425;SDS011;69766;51.476;5.704;2023-08-07T08:45:17;11.05;;;2.28;;
80425;SDS011;69766;51.476;5.704;2023-08-07T08:47:45;10.52;;;2.42;;
80425;SDS011;69766;51.476;5.704;2023-08-07T08:50:14;7.47;;;2.20;;
80425;SDS011;69766;51.476;5.704;2023-08-07T08:53:09;9.15;;;2.17;;
80425;SDS011;69766;51.476;5.704;2023-08-07T08:55:36;6.35;;;1.92;;
80425;SDS011;69766;51.476;5.704;2023-08-07T08:58:02;8.38;;;1.48;;
80425;SDS011;69766;51.476;5.704;2023-08-07T09:00:28;12.68;;;2.88;;
80425;SDS011;69766;51.476;5.704;2023-08-07T09:02:55;7.93;;;2.28;;
80425;SDS011;69766;51.476;5.704;2023-08-07T09:05:22;8.57;;;1.83;;
80425;SDS011;69766;51.476;5.704;2023-08-07T09:07:48;5.97;;;1.50;;
80425;SDS011;69766;51.476;5.704;2023-08-07T09:10:14;7.68;;;1.42;;
80425;SDS011;69766;51.476;5.704;2023-08-07T09:12:42;8.55;;;1.95;;
80425;SDS011;69766;51.476;5.704;2023-08-07T09:15:17;8.93;;;1.75;;
80425;SDS011;69766;51.476;5.704;2023-08-07T09:17:44;6.13;;;2.05;;
80425;SDS011;69766;51.476;5.704;2023-08-07T09:20:32;7.65;;;1.95;;
80425;SDS011;69766;51.476;5.704;2023-08-07T09:22:57;9.10;;;1.73;;
80425;SDS011;69766;51.476;5.704;2023-08-07T09:25:32;8.30;;;2.20;;
80425;SDS011;69766;51.476;5.704;2023-08-07T09:28:02;6.68;;;1.60;;
80425;SDS011;69766;51.476;5.704;2023-08-07T09:32:59;6.80;;;1.52;;
80425;SDS011;69766;51.476;5.704;2023-08-07T09:35:25;7.13;;;1.60;;
80425;SDS011;69766;51.476;5.704;2023-08-07T09:37:51;6.18;;;1.40;;
80425;SDS011;69766;51.476;5.704;2023-08-07T09:40:17;4.70;;;1.58;;
80425;SDS011;69766;51.476;5.704;2023-08-07T09:42:43;6.82;;;1.42;;
80425;SDS011;69766;51.476;5.704;2023-08-07T09:45:22;4.55;;;1.15;;
80425;SDS011;69766;51.476;5.704;2023-08-07T09:48:01;6.65;;;1.73;;
80425;SDS011;69766;51.476;5.704;2023-08-07T09:50:28;7.45;;;1.60;;
80425;SDS011;69766;51.476;5.704;2023-08-07T09:52:55;7.75;;;1.73;;
80425;SDS011;69766;51.476;5.704;2023-08-07T09:55:22;4.28;;;1.30;;
80425;SDS011;69766;51.476;5.704;2023-08-07T09:57:49;3.75;;;1.77;;
80425;SDS011;69766;51.476;5.704;2023-08-07T10:00:15;4.97;;;1.35;;
80425;SDS011;69766;51.476;5.704;2023-08-07T10:02:44;5.32;;;1.17;;
80425;SDS011;69766;51.476;5.704;2023-08-07T10:05:12;8.63;;;1.77;;
80425;SDS011;69766;51.476;5.704;2023-08-07T10:07:38;3.97;;;1.35;;
80425;SDS011;69766;51.476;5.704;2023-08-07T10:10:06;5.65;;;1.67;;
80425;SDS011;69766;51.476;5.704;2023-08-07T10:12:32;3.58;;;1.25;;
80425;SDS011;69766;51.476;5.704;2023-08-07T10:15:01;6.72;;;1.70;;
80425;SDS011;69766;51.476;5.704;2023-08-07T10:17:27;6.38;;;1.52;;
80425;SDS011;69766;51.476;5.704;2023-08-07T10:19:54;3.78;;;1.25;;
80425;SDS011;69766;51.476;5.704;2023-08-07T10:22:20;9.57;;;2.03;;
80425;SDS011;69766;51.476;5.704;2023-08-07T10:24:48;5.05;;;2.05;;
80425;SDS011;69766;51.476;5.704;2023-08-07T10:27:18;2.95;;;0.95;;
80425;SDS011;69766;51.476;5.704;2023-08-07T10:29:47;3.03;;;1.15;;
80425;SDS011;69766;51.476;5.704;2023-08-07T10:32:14;7.22;;;1.60;;
80425;SDS011;69766;51.476;5.704;2023-08-07T10:34:46;4.63;;;1.35;;
80425;SDS011;69766;51.476;5.704;2023-08-07T10:40:06;5.18;;;1.63;;
80425;SDS011;69766;51.476;5.704;2023-08-07T10:45:23;5.97;;;1.30;;
80425;SDS011;69766;51.476;5.704;2023-08-07T10:48:01;3.58;;;1.08;;
80425;SDS011;69766;51.476;5.704;2023-08-07T10:53:02;2.83;;;0.90;;
80425;SDS011;69766;51.476;5.704;2023-08-07T10:55:32;4.57;;;1.40;;
80425;SDS011;69766;51.476;5.704;2023-08-07T10:58:20;2.38;;;1.23;;
80425;SDS011;69766;51.476;5.704;2023-08-07T11:03:53;2.85;;;1.23;;
80425;SDS011;69766;51.476;5.704;2023-08-07T11:06:25;4.30;;;0.90;;
80425;SDS011;69766;51.476;5.704;2023-08-07T11:08:58;5.03;;;1.20;;
80425;SDS011;69766;51.476;5.704;2023-08-07T11:11:24;6.30;;;1.20;;
80425;SDS011;69766;51.476;5.704;2023-08-07T11:13:50;5.80;;;1.40;;
80425;SDS011;69766;51.476;5.704;2023-08-07T11:16:16;2.83;;;1.20;;
80425;SDS011;69766;51.476;5.704;2023-08-07T11:18:42;4.50;;;1.33;;
80425;SDS011;69766;51.476;5.704;2023-08-07T11:21:08;4.10;;;1.23;;
80425;SDS011;69766;51.476;5.704;2023-08-07T11:23:36;5.75;;;1.60;;
80425;SDS011;69766;51.476;5.704;2023-08-07T11:26:02;3.15;;;1.25;;
80425;SDS011;69766;51.476;5.704;2023-08-07T11:28:28;5.18;;;1.40;;
80425;SDS011;69766;51.476;5.704;2023-08-07T11:30:54;3.35;;;1.23;;
80425;SDS011;69766;51.476;5.704;2023-08-07T11:33:21;4.00;;;1.25;;
80425;SDS011;69766;51.476;5.704;2023-08-07T11:35:48;6.07;;;1.50;;
80425;SDS011;69766;51.476;5.704;2023-08-07T11:38:36;5.45;;;1.52;;
80425;SDS011;69766;51.476;5.704;2023-08-07T11:41:05;3.58;;;1.10;;
80425;SDS011;69766;51.476;5.704;2023-08-07T11:43:32;1.67;;;0.90;;
80425;SDS011;69766;51.476;5.704;2023-08-07T11:45:59;3.90;;;1.45;;
80425;SDS011;69766;51.476;5.704;2023-08-07T11:48:27;3.78;;;1.27;;
80425;SDS011;69766;51.476;5.704;2023-08-07T11:50:53;3.92;;;1.30;;
80425;SDS011;69766;51.476;5.704;2023-08-07T11:53:21;4.63;;;1.17;;
80425;SDS011;69766;51.476;5.704;2023-08-07T11:55:51;3.60;;;1.38;;
80425;SDS011;69766;51.476;5.704;2023-08-07T11:58:21;6.22;;;1.50;;
80425;SDS011;69766;51.476;5.704;2023-08-07T12:00:48;3.85;;;1.17;;
80425;SDS011;69766;51.476;5.704;2023-08-07T12:03:27;3.90;;;1.40;;
80425;SDS011;69766;51.476;5.704;2023-08-07T12:05:58;3.42;;;1.38;;
80425;SDS011;69766;51.476;5.704;2023-08-07T12:11:00;4.45;;;1.65;;
80425;SDS011;69766;51.476;5.704;2023-08-07T12:13:30;4.43;;;1.25;;
80425;SDS011;69766;51.476;5.704;2023-08-07T12:15:58;3.15;;;1.08;;
80425;SDS011;69766;51.476;5.704;2023-08-07T12:18:24;5.40;;;1.23;;
80425;SDS011;69766;51.476;5.704;2023-08-07T12:20:52;4.63;;;1.30;;
80425;SDS011;69766;51.476;5.704;2023-08-07T12:25:48;4.93;;;1.20;;
80425;SDS011;69766;51.476;5.704;2023-08-07T12:28:14;3.47;;;1.20;;
80425;SDS011;69766;51.476;5.704;2023-08-07T12:30:43;5.15;;;1.63;;
80425;SDS011;69766;51.476;5.704;2023-08-07T12:33:11;4.40;;;1.10;;
80425;SDS011;69766;51.476;5.704;2023-08-07T12:35:37;5.57;;;1.50;;
80425;SDS011;69766;51.476;5.704;2023-08-07T12:38:04;4.30;;;1.10;;
80425;SDS011;69766;51.476;5.704;2023-08-07T12:40:30;2.50;;;1.30;;
80425;SDS011;69766;51.476;5.704;2023-08-07T12:42:57;4.38;;;1.10;;
80425;SDS011;69766;51.476;5.704;2023-08-07T12:45:23;6.78;;;1.88;;
80425;SDS011;69766;51.476;5.704;2023-08-07T12:47:49;2.80;;;1.05;;
80425;SDS011;69766;51.476;5.704;2023-08-07T12:50:15;6.45;;;1.27;;
80425;SDS011;69766;51.476;5.704;2023-08-07T12:52:40;5.63;;;1.30;;
80425;SDS011;69766;51.476;5.704;2023-08-07T12:55:06;5.43;;;1.38;;
80425;SDS011;69766;51.476;5.704;2023-08-07T12:57:33;4.68;;;1.80;;
80425;SDS011;69766;51.476;5.704;2023-08-07T12:59:58;9.55;;;2.00;;
80425;SDS011;69766;51.476;5.704;2023-08-07T13:02:24;3.28;;;1.30;;
80425;SDS011;69766;51.476;5.704;2023-08-07T13:04:50;3.83;;;1.52;;
80425;SDS011;69766;51.476;5.704;2023-08-07T13:07:19;3.17;;;1.50;;
80425;SDS011;69766;51.476;5.704;2023-08-07T13:09:44;7.38;;;1.92;;
80425;SDS011;69766;51.476;5.704;2023-08-07T13:12:11;7.38;;;2.15;;
80425;SDS011;69766;51.476;5.704;2023-08-07T13:14:36;7.38;;;1.77;;
80425;SDS011;69766;51.476;5.704;2023-08-07T13:17:02;8.02;;;2.67;;
80425;SDS011;69766;51.476;5.704;2023-08-07T13:19:28;9.95;;;2.63;;
80425;SDS011;69766;51.476;5.704;2023-08-07T13:21:53;7.78;;;2.47;;
80425;SDS011;69766;51.476;5.704;2023-08-07T13:24:19;6.55;;;2.22;;
80425;SDS011;69766;51.476;5.704;2023-08-07T13:26:44;8.18;;;2.05;;
80425;SDS011;69766;51.476;5.704;2023-08-07T13:29:11;7.13;;;2.08;;
80425;SDS011;69766;51.476;5.704;2023-08-07T13:31:36;9.60;;;2.08;;
80425;SDS011;69766;51.476;5.704;2023-08-07T13:34:02;5.32;;;1.75;;
80425;SDS011;69766;51.476;5.704;2023-08-07T13:36:33;6.93;;;1.85;;
80425;SDS011;69766;51.476;5.704;2023-08-07T13:39:03;6.68;;;2.33;;
80425;SDS011;69766;51.476;5.704;2023-08-07T13:41:29;5.13;;;1.83;;
80425;SDS011;69766;51.476;5.704;2023-08-07T13:43:55;6.28;;;1.67;;
80425;SDS011;69766;51.476;5.704;2023-08-07T13:46:20;6.82;;;1.95;;
80425;SDS011;69766;51.476;5.704;2023-08-07T13:48:47;4.97;;;1.88;;
80425;SDS011;69766;51.476;5.704;2023-08-07T13:51:16;8.45;;;2.25;;
80425;SDS011;69766;51.476;5.704;2023-08-07T13:53:42;9.02;;;2.28;;
80425;SDS011;69766;51.476;5.704;2023-08-07T13:56:08;5.55;;;2.47;;
80425;SDS011;69766;51.476;5.704;2023-08-07T13:58:37;6.20;;;2.15;;
80425;SDS011;69766;51.476;5.704;2023-08-07T14:01:03;7.47;;;2.20;;
80425;SDS011;69766;51.476;5.704;2023-08-07T14:03:29;4.65;;;2.22;;
80425;SDS011;69766;51.476;5.704;2023-08-07T14:05:58;7.15;;;2.30;;
80425;SDS011;69766;51.476;5.704;2023-08-07T14:08:23;5.88;;;2.40;;
80425;SDS011;69766;51.476;5.704;2023-08-07T14:10:49;6.00;;;2.25;;
80425;SDS011;69766;51.476;5.704;2023-08-07T14:13:15;5.55;;;2.13;;
80425;SDS011;69766;51.476;5.704;2023-08-07T14:15:43;5.45;;;2.90;;
80425;SDS011;69766;51.476;5.704;2023-08-07T14:18:09;4.55;;;2.00;;
80425;SDS011;69766;51.476;5.704;2023-08-07T14:20:40;5.70;;;1.95;;
80425;SDS011;69766;51.476;5.704;2023-08-07T14:23:05;5.97;;;2.15;;
80425;SDS011;69766;51.476;5.704;2023-08-07T14:25:34;5.97;;;1.98;;
80425;SDS011;69766;51.476;5.704;2023-08-07T14:28:03;5.80;;;1.95;;
80425;SDS011;69766;51.476;5.704;2023-08-07T14:30:34;6.97;;;2.10;;
80425;SDS011;69766;51.476;5.704;2023-08-07T14:33:00;4.45;;;1.92;;
80425;SDS011;69766;51.476;5.704;2023-08-07T14:35:26;6.45;;;2.00;;
80425;SDS011;69766;51.476;5.704;2023-08-07T14:37:55;6.47;;;2.10;;
80425;SDS011;69766;51.476;5.704;2023-08-07T14:40:20;5.70;;;2.22;;
80425;SDS011;69766;51.476;5.704;2023-08-07T14:42:46;4.82;;;1.85;;
80425;SDS011;69766;51.476;5.704;2023-08-07T14:45:12;5.78;;;1.95;;
80425;SDS011;69766;51.476;5.704;2023-08-07T14:47:38;7.53;;;2.13;;
80425;SDS011;69766;51.476;5.704;2023-08-07T14:50:04;5.10;;;1.42;;
80425;SDS011;69766;51.476;5.704;2023-08-07T14:52:32;5.32;;;1.90;;
80425;SDS011;69766;51.476;5.704;2023-08-07T14:54:58;3.80;;;1.73;;
80425;SDS011;69766;51.476;5.704;2023-08-07T14:57:24;4.35;;;1.63;;
80425;SDS011;69766;51.476;5.704;2023-08-07T14:59:49;5.70;;;1.90;;
80425;SDS011;69766;51.476;5.704;2023-08-07T15:02:15;5.32;;;1.88;;
80425;SDS011;69766;51.476;5.704;2023-08-07T15:04:41;6.10;;;1.50;;
80425;SDS011;69766;51.476;5.704;2023-08-07T15:07:12;4.80;;;1.70;;